sensor_id;sensor_type;location;lat;lon;timestamp;P1;durP1;ratioP1;P2;durP2;ratioP2
10902;SDS011;5504;47.312;11.060;2023-05-07T00:02:08;3.00;;;2.70;;
10902;SDS011;5504;47.312;11.060;2023-05-07T00:04:34;3.30;;;3.00;;
10902;SDS011;5504;47.312;11.060;2023-05-07T00:07:02;3.10;;;2.80;;
10902;SDS011;5504;47.312;11.060;2023-05-07T00:09:28;4.20;;;3.13;;
10902;SDS011;5504;47.312;11.060;2023-05-07T00:11:54;5.00;;;3.17;;
10902;SDS011;5504;47.312;11.060;2023-05-07T00:14:20;4.33;;;3.30;;
10902;SDS011;5504;47.312;11.060;2023-05-07T00:16:46;2.87;;;2.67;;
10902;SDS011;5504;47.312;11.060;2023-05-07T00:19:11;4.57;;;3.10;;
10902;SDS011;5504;47.312;11.060;2023-05-07T00:21:37;3.37;;;3.07;;
10902;SDS011;5504;47.312;11.060;2023-05-07T00:24:03;4.53;;;3.30;;
10902;SDS011;5504;47.312;11.060;2023-05-07T00:26:29;4.57;;;3.10;;
10902;SDS011;5504;47.312;11.060;2023-05-07T00:28:55;5.23;;;3.27;;
10902;SDS011;5504;47.312;11.060;2023-05-07T00:31:20;3.50;;;3.20;;
10902;SDS011;5504;47.312;11.060;2023-05-07T00:33:46;3.50;;;3.00;;
10902;SDS011;5504;47.312;11.060;2023-05-07T00:36:12;3.57;;;3.27;;
10902;SDS011;5504;47.312;11.060;2023-05-07T00:38:37;3.47;;;3.20;;
10902;SDS011;5504;47.312;11.060;2023-05-07T00:41:03;3.57;;;3.00;;
10902;SDS011;5504;47.312;11.060;2023-05-07T00:43:29;3.20;;;2.90;;
10902;SDS011;5504;47.312;11.060;2023-05-07T00:45:54;4.03;;;3.27;;
10902;SDS011;5504;47.312;11.060;2023-05-07T00:48:22;3.53;;;3.03;;
10902;SDS011;5504;47.312;11.060;2023-05-07T00:50:49;4.43;;;3.20;;
10902;SDS011;5504;47.312;11.060;2023-05-07T00:53:15;3.83;;;2.97;;
10902;SDS011;5504;47.312;11.060;2023-05-07T00:55:41;3.50;;;3.00;;
10902;SDS011;5504;47.312;11.060;2023-05-07T00:58:07;3.63;;;3.33;;
10902;SDS011;5504;47.312;11.060;2023-05-07T01:00:33;3.60;;;3.30;;
10902;SDS011;5504;47.312;11.060;2023-05-07T01:02:59;3.67;;;3.30;;
10902;SDS011;5504;47.312;11.060;2023-05-07T01:05:24;3.57;;;3.27;;
10902;SDS011;5504;47.312;11.060;2023-05-07T01:07:53;3.47;;;3.13;;
10902;SDS011;5504;47.312;11.060;2023-05-07T01:10:20;3.57;;;3.23;;
10902;SDS011;5504;47.312;11.060;2023-05-07T01:12:46;4.10;;;3.80;;
10902;SDS011;5504;47.312;11.060;2023-05-07T01:15:14;3.63;;;3.33;;
10902;SDS011;5504;47.312;11.060;2023-05-07T01:17:41;3.80;;;3.40;;
10902;SDS011;5504;47.312;11.060;2023-05-07T01:20:07;3.50;;;3.20;;
10902;SDS011;5504;47.312;11.060;2023-05-07T01:22:35;3.87;;;3.40;;
10902;SDS011;5504;47.312;11.060;2023-05-07T01:25:04;4.27;;;3.53;;
10902;SDS011;5504;47.312;11.060;2023-05-07T01:27:30;4.33;;;3.20;;
10902;SDS011;5504;47.312;11.060;2023-05-07T01:29:58;3.73;;;3.43;;
10902;SDS011;5504;47.312;11.060;2023-05-07T01:32:35;3.70;;;3.40;;
10902;SDS011;5504;47.312;11.060;2023-05-07T01:35:05;3.37;;;3.07;;
10902;SDS011;5504;47.312;11.060;2023-05-07T01:37:36;3.57;;;3.27;;
10902;SDS011;5504;47.312;11.060;2023-05-07T01:40:02;4.37;;;3.83;;
10902;SDS011;5504;47.312;11.060;2023-05-07T01:42:29;4.03;;;3.63;;
10902;SDS011;5504;47.312;11.060;2023-05-07T01:44:56;3.90;;;3.57;;
10902;SDS011;5504;47.312;11.060;2023-05-07T01:47:22;3.77;;;3.40;;
10902;SDS011;5504;47.312;11.060;2023-05-07T01:49:49;3.97;;;3.17;;
10902;SDS011;5504;47.312;11.060;2023-05-07T01:52:15;3.63;;;3.30;;
10902;SDS011;5504;47.312;11.060;2023-05-07T01:54:40;3.30;;;3.00;;
10902;SDS011;5504;47.312;11.060;2023-05-07T01:57:06;4.20;;;3.80;;
10902;SDS011;5504;47.312;11.060;2023-05-07T01:59:32;4.80;;;3.47;;
10902;SDS011;5504;47.312;11.060;2023-05-07T02:01:58;5.00;;;3.20;;
10902;SDS011;5504;47.312;11.060;2023-05-07T02:04:23;4.90;;;3.40;;
10902;SDS011;5504;47.312;11.060;2023-05-07T02:06:49;3.57;;;3.27;;
10902;SDS011;5504;47.312;11.060;2023-05-07T02:09:15;4.10;;;3.23;;
10902;SDS011;5504;47.312;11.060;2023-05-07T02:11:41;4.20;;;3.63;;
10902;SDS011;5504;47.312;11.060;2023-05-07T02:14:06;4.07;;;3.50;;
10902;SDS011;5504;47.312;11.060;2023-05-07T02:16:32;4.30;;;3.50;;
10902;SDS011;5504;47.312;11.060;2023-05-07T02:18:58;3.20;;;2.90;;
10902;SDS011;5504;47.312;11.060;2023-05-07T02:21:24;3.97;;;3.40;;
10902;SDS011;5504;47.312;11.060;2023-05-07T02:23:50;4.47;;;3.40;;
10902;SDS011;5504;47.312;11.060;2023-05-07T02:26:16;3.93;;;3.53;;
10902;SDS011;5504;47.312;11.060;2023-05-07T02:28:41;4.20;;;3.53;;
10902;SDS011;5504;47.312;11.060;2023-05-07T02:31:07;4.20;;;3.80;;
10902;SDS011;5504;47.312;11.060;2023-05-07T02:33:33;4.20;;;3.57;;
10902;SDS011;5504;47.312;11.060;2023-05-07T02:36:06;4.30;;;3.60;;
10902;SDS011;5504;47.312;11.060;2023-05-07T02:38:36;3.80;;;3.50;;
10902;SDS011;5504;47.312;11.060;2023-05-07T02:41:02;3.87;;;3.57;;
10902;SDS011;5504;47.312;11.060;2023-05-07T02:43:27;4.23;;;3.80;;
10902;SDS011;5504;47.312;11.060;2023-05-07T02:46:06;3.63;;;3.33;;
10902;SDS011;5504;47.312;11.060;2023-05-07T02:48:33;3.90;;;3.40;;
10902;SDS011;5504;47.312;11.060;2023-05-07T02:50:59;3.60;;;3.30;;
10902;SDS011;5504;47.312;11.060;2023-05-07T02:53:26;3.53;;;3.23;;
10902;SDS011;5504;47.312;11.060;2023-05-07T02:55:55;3.87;;;3.43;;
10902;SDS011;5504;47.312;11.060;2023-05-07T02:58:23;5.37;;;3.80;;
10902;SDS011;5504;47.312;11.060;2023-05-07T03:00:49;4.70;;;4.30;;
10902;SDS011;5504;47.312;11.060;2023-05-07T03:03:15;4.87;;;4.30;;
10902;SDS011;5504;47.312;11.060;2023-05-07T03:05:42;4.70;;;4.17;;
10902;SDS011;5504;47.312;11.060;2023-05-07T03:08:08;4.60;;;4.10;;
10902;SDS011;5504;47.312;11.060;2023-05-07T03:10:35;4.50;;;4.10;;
10902;SDS011;5504;47.312;11.060;2023-05-07T03:13:01;4.10;;;3.70;;
10902;SDS011;5504;47.312;11.060;2023-05-07T03:15:27;4.30;;;3.90;;
10902;SDS011;5504;47.312;11.060;2023-05-07T03:17:53;4.23;;;3.90;;
10902;SDS011;5504;47.312;11.060;2023-05-07T03:20:19;4.30;;;3.93;;
10902;SDS011;5504;47.312;11.060;2023-05-07T03:22:45;5.70;;;3.90;;
10902;SDS011;5504;47.312;11.060;2023-05-07T03:25:10;4.70;;;3.77;;
10902;SDS011;5504;47.312;11.060;2023-05-07T03:27:37;3.73;;;3.43;;
10902;SDS011;5504;47.312;11.060;2023-05-07T03:30:03;4.50;;;3.60;;
10902;SDS011;5504;47.312;11.060;2023-05-07T03:32:29;3.90;;;3.60;;
10902;SDS011;5504;47.312;11.060;2023-05-07T03:34:55;3.77;;;3.47;;
10902;SDS011;5504;47.312;11.060;2023-05-07T03:37:21;3.90;;;3.60;;
10902;SDS011;5504;47.312;11.060;2023-05-07T03:39:46;3.70;;;3.40;;
10902;SDS011;5504;47.312;11.060;2023-05-07T03:42:12;5.27;;;4.00;;
10902;SDS011;5504;47.312;11.060;2023-05-07T03:44:38;3.80;;;3.50;;
10902;SDS011;5504;47.312;11.060;2023-05-07T03:47:04;4.10;;;3.80;;
10902;SDS011;5504;47.312;11.060;2023-05-07T03:49:29;5.30;;;4.00;;
10902;SDS011;5504;47.312;11.060;2023-05-07T03:51:55;4.43;;;4.03;;
10902;SDS011;5504;47.312;11.060;2023-05-07T03:54:21;4.00;;;3.60;;
10902;SDS011;5504;47.312;11.060;2023-05-07T03:56:47;3.80;;;3.50;;
10902;SDS011;5504;47.312;11.060;2023-05-07T03:59:13;4.37;;;3.70;;
10902;SDS011;5504;47.312;11.060;2023-05-07T04:01:38;3.70;;;3.40;;
10902;SDS011;5504;47.312;11.060;2023-05-07T04:04:04;3.90;;;3.60;;
10902;SDS011;5504;47.312;11.060;2023-05-07T04:06:30;4.83;;;3.60;;
10902;SDS011;5504;47.312;11.060;2023-05-07T04:08:56;4.57;;;3.80;;
10902;SDS011;5504;47.312;11.060;2023-05-07T04:11:22;4.10;;;3.70;;
10902;SDS011;5504;47.312;11.060;2023-05-07T04:13:48;4.93;;;4.10;;
10902;SDS011;5504;47.312;11.060;2023-05-07T04:16:13;4.47;;;3.87;;
10902;SDS011;5504;47.312;11.060;2023-05-07T04:18:39;4.03;;;3.63;;
10902;SDS011;5504;47.312;11.060;2023-05-07T04:21:05;4.20;;;3.80;;
10902;SDS011;5504;47.312;11.060;2023-05-07T04:23:30;4.10;;;3.80;;
10902;SDS011;5504;47.312;11.060;2023-05-07T04:25:56;4.40;;;4.00;;
10902;SDS011;5504;47.312;11.060;2023-05-07T04:28:22;5.50;;;3.80;;
10902;SDS011;5504;47.312;11.060;2023-05-07T04:30:48;4.80;;;3.60;;
10902;SDS011;5504;47.312;11.060;2023-05-07T04:33:14;3.87;;;3.50;;
10902;SDS011;5504;47.312;11.060;2023-05-07T04:35:43;3.90;;;3.30;;
10902;SDS011;5504;47.312;11.060;2023-05-07T04:38:09;3.80;;;3.47;;
10902;SDS011;5504;47.312;11.060;2023-05-07T04:40:37;4.50;;;3.83;;
10902;SDS011;5504;47.312;11.060;2023-05-07T04:43:04;4.27;;;3.87;;
10902;SDS011;5504;47.312;11.060;2023-05-07T04:45:29;4.03;;;3.60;;
10902;SDS011;5504;47.312;11.060;2023-05-07T04:47:55;4.10;;;3.70;;
10902;SDS011;5504;47.312;11.060;2023-05-07T04:50:21;4.10;;;3.80;;
10902;SDS011;5504;47.312;11.060;2023-05-07T04:52:49;3.40;;;3.10;;
10902;SDS011;5504;47.312;11.060;2023-05-07T04:55:15;3.57;;;3.27;;
10902;SDS011;5504;47.312;11.060;2023-05-07T04:57:40;3.60;;;3.30;;
10902;SDS011;5504;47.312;11.060;2023-05-07T05:00:06;3.53;;;3.20;;
10902;SDS011;5504;47.312;11.060;2023-05-07T05:02:39;4.23;;;3.47;;
10902;SDS011;5504;47.312;11.060;2023-05-07T05:05:05;4.60;;;3.60;;
10902;SDS011;5504;47.312;11.060;2023-05-07T05:07:31;4.37;;;3.27;;
10902;SDS011;5504;47.312;11.060;2023-05-07T05:09:56;4.23;;;3.10;;
10902;SDS011;5504;47.312;11.060;2023-05-07T05:12:22;4.90;;;3.53;;
10902;SDS011;5504;47.312;11.060;2023-05-07T05:14:48;3.70;;;3.40;;
10902;SDS011;5504;47.312;11.060;2023-05-07T05:17:14;3.53;;;3.23;;
10902;SDS011;5504;47.312;11.060;2023-05-07T05:19:40;4.50;;;3.33;;
10902;SDS011;5504;47.312;11.060;2023-05-07T05:22:06;4.40;;;3.30;;
10902;SDS011;5504;47.312;11.060;2023-05-07T05:24:31;3.83;;;3.40;;
10902;SDS011;5504;47.312;11.060;2023-05-07T05:26:57;3.67;;;3.37;;
10902;SDS011;5504;47.312;11.060;2023-05-07T05:29:25;3.93;;;3.23;;
10902;SDS011;5504;47.312;11.060;2023-05-07T05:31:50;4.37;;;3.57;;
10902;SDS011;5504;47.312;11.060;2023-05-07T05:34:16;3.80;;;3.23;;
10902;SDS011;5504;47.312;11.060;2023-05-07T05:36:44;3.73;;;3.30;;
10902;SDS011;5504;47.312;11.060;2023-05-07T05:39:10;3.47;;;3.10;;
10902;SDS011;5504;47.312;11.060;2023-05-07T05:41:36;4.13;;;3.53;;
10902;SDS011;5504;47.312;11.060;2023-05-07T05:44:01;5.07;;;3.83;;
10902;SDS011;5504;47.312;11.060;2023-05-07T05:46:27;3.70;;;3.20;;
10902;SDS011;5504;47.312;11.060;2023-05-07T05:48:53;3.60;;;3.30;;
10902;SDS011;5504;47.312;11.060;2023-05-07T05:51:18;3.90;;;3.50;;
10902;SDS011;5504;47.312;11.060;2023-05-07T05:53:45;4.97;;;3.83;;
10902;SDS011;5504;47.312;11.060;2023-05-07T05:56:11;4.40;;;3.83;;
10902;SDS011;5504;47.312;11.060;2023-05-07T05:58:37;4.40;;;4.00;;
10902;SDS011;5504;47.312;11.060;2023-05-07T06:01:02;4.00;;;3.60;;
10902;SDS011;5504;47.312;11.060;2023-05-07T06:03:28;4.00;;;3.70;;
10902;SDS011;5504;47.312;11.060;2023-05-07T06:05:54;4.30;;;3.60;;
10902;SDS011;5504;47.312;11.060;2023-05-07T06:08:20;3.80;;;3.47;;
10902;SDS011;5504;47.312;11.060;2023-05-07T06:10:45;4.83;;;3.60;;
10902;SDS011;5504;47.312;11.060;2023-05-07T06:13:11;3.90;;;3.50;;
10902;SDS011;5504;47.312;11.060;2023-05-07T06:15:37;4.20;;;3.87;;
10902;SDS011;5504;47.312;11.060;2023-05-07T06:18:02;4.27;;;3.53;;
10902;SDS011;5504;47.312;11.060;2023-05-07T06:20:28;4.07;;;3.60;;
10902;SDS011;5504;47.312;11.060;2023-05-07T06:22:54;3.60;;;3.30;;
10902;SDS011;5504;47.312;11.060;2023-05-07T06:25:19;5.30;;;3.60;;
10902;SDS011;5504;47.312;11.060;2023-05-07T06:27:45;2.97;;;2.77;;
10902;SDS011;5504;47.312;11.060;2023-05-07T06:30:11;3.53;;;3.23;;
10902;SDS011;5504;47.312;11.060;2023-05-07T06:32:37;3.30;;;3.00;;
10902;SDS011;5504;47.312;11.060;2023-05-07T06:35:03;4.20;;;2.80;;
10902;SDS011;5504;47.312;11.060;2023-05-07T06:37:28;3.83;;;2.60;;
10902;SDS011;5504;47.312;11.060;2023-05-07T06:39:54;3.37;;;2.70;;
10902;SDS011;5504;47.312;11.060;2023-05-07T06:42:20;3.33;;;2.57;;
10902;SDS011;5504;47.312;11.060;2023-05-07T06:44:45;2.60;;;2.40;;
10902;SDS011;5504;47.312;11.060;2023-05-07T06:47:11;2.83;;;2.63;;
10902;SDS011;5504;47.312;11.060;2023-05-07T06:49:37;2.30;;;2.10;;
10902;SDS011;5504;47.312;11.060;2023-05-07T06:52:02;2.00;;;1.90;;
10902;SDS011;5504;47.312;11.060;2023-05-07T06:54:28;2.57;;;2.37;;
10902;SDS011;5504;47.312;11.060;2023-05-07T06:56:54;5.37;;;2.67;;
10902;SDS011;5504;47.312;11.060;2023-05-07T06:59:20;2.80;;;2.20;;
10902;SDS011;5504;47.312;11.060;2023-05-07T07:01:46;2.40;;;2.00;;
10902;SDS011;5504;47.312;11.060;2023-05-07T07:04:11;2.80;;;2.07;;
10902;SDS011;5504;47.312;11.060;2023-05-07T07:06:37;2.87;;;2.43;;
10902;SDS011;5504;47.312;11.060;2023-05-07T07:09:03;2.50;;;2.30;;
10902;SDS011;5504;47.312;11.060;2023-05-07T07:11:28;2.13;;;1.97;;
10902;SDS011;5504;47.312;11.060;2023-05-07T07:13:54;2.93;;;2.00;;
10902;SDS011;5504;47.312;11.060;2023-05-07T07:16:20;2.43;;;2.20;;
10902;SDS011;5504;47.312;11.060;2023-05-07T07:18:46;3.10;;;2.10;;
10902;SDS011;5504;47.312;11.060;2023-05-07T07:21:12;2.45;;;2.13;;
10902;SDS011;5504;47.312;11.060;2023-05-07T07:23:38;2.30;;;2.10;;
10902;SDS011;5504;47.312;11.060;2023-05-07T07:26:03;2.33;;;2.10;;
10902;SDS011;5504;47.312;11.060;2023-05-07T07:28:30;2.38;;;2.03;;
10902;SDS011;5504;47.312;11.060;2023-05-07T07:30:56;3.13;;;2.10;;
10902;SDS011;5504;47.312;11.060;2023-05-07T07:33:22;2.63;;;2.20;;
10902;SDS011;5504;47.312;11.060;2023-05-07T07:35:47;3.22;;;2.00;;
10902;SDS011;5504;47.312;11.060;2023-05-07T07:38:13;2.28;;;2.08;;
10902;SDS011;5504;47.312;11.060;2023-05-07T07:40:39;2.30;;;2.10;;
10902;SDS011;5504;47.312;11.060;2023-05-07T07:43:04;2.22;;;2.00;;
10902;SDS011;5504;47.312;11.060;2023-05-07T07:45:31;2.58;;;1.90;;
10902;SDS011;5504;47.312;11.060;2023-05-07T07:47:56;3.47;;;2.10;;
10902;SDS011;5504;47.312;11.060;2023-05-07T07:50:22;2.22;;;1.95;;
10902;SDS011;5504;47.312;11.060;2023-05-07T07:52:48;1.77;;;1.67;;
10902;SDS011;5504;47.312;11.060;2023-05-07T07:55:13;3.03;;;2.00;;
10902;SDS011;5504;47.312;11.060;2023-05-07T07:57:43;1.60;;;1.50;;
10902;SDS011;5504;47.312;11.060;2023-05-07T08:00:08;1.83;;;1.50;;
10902;SDS011;5504;47.312;11.060;2023-05-07T08:02:35;2.65;;;1.60;;
10902;SDS011;5504;47.312;11.060;2023-05-07T08:05:00;1.50;;;1.40;;
10902;SDS011;5504;47.312;11.060;2023-05-07T08:07:26;1.60;;;1.50;;
10902;SDS011;5504;47.312;11.060;2023-05-07T08:09:52;1.45;;;1.30;;
10902;SDS011;5504;47.312;11.060;2023-05-07T08:12:18;1.83;;;1.40;;
10902;SDS011;5504;47.312;11.060;2023-05-07T08:14:43;2.05;;;1.60;;
10902;SDS011;5504;47.312;11.060;2023-05-07T08:17:09;2.10;;;1.35;;
10902;SDS011;5504;47.312;11.060;2023-05-07T08:19:35;3.15;;;1.40;;
10902;SDS011;5504;47.312;11.060;2023-05-07T08:22:02;1.50;;;1.40;;
10902;SDS011;5504;47.312;11.060;2023-05-07T08:24:29;1.60;;;1.25;;
10902;SDS011;5504;47.312;11.060;2023-05-07T08:26:55;2.47;;;1.40;;
10902;SDS011;5504;47.312;11.060;2023-05-07T08:29:21;1.40;;;1.27;;
10902;SDS011;5504;47.312;11.060;2023-05-07T08:31:46;2.13;;;1.23;;
10902;SDS011;5504;47.312;11.060;2023-05-07T08:34:12;1.30;;;1.20;;
10902;SDS011;5504;47.312;11.060;2023-05-07T08:36:38;1.58;;;1.35;;
10902;SDS011;5504;47.312;11.060;2023-05-07T08:39:03;1.33;;;1.10;;
10902;SDS011;5504;47.312;11.060;2023-05-07T08:41:29;1.30;;;1.20;;
10902;SDS011;5504;47.312;11.060;2023-05-07T08:43:56;1.20;;;1.10;;
10902;SDS011;5504;47.312;11.060;2023-05-07T08:46:25;1.10;;;1.00;;
10902;SDS011;5504;47.312;11.060;2023-05-07T08:48:51;1.10;;;1.00;;
10902;SDS011;5504;47.312;11.060;2023-05-07T08:51:18;1.20;;;1.10;;
10902;SDS011;5504;47.312;11.060;2023-05-07T08:53:46;0.95;;;0.95;;
10902;SDS011;5504;47.312;11.060;2023-05-07T08:56:16;1.35;;;1.00;;
10902;SDS011;5504;47.312;11.060;2023-05-07T08:58:42;1.42;;;1.10;;
10902;SDS011;5504;47.312;11.060;2023-05-07T09:01:09;1.52;;;1.00;;
10902;SDS011;5504;47.312;11.060;2023-05-07T09:03:38;1.00;;;0.90;;
10902;SDS011;5504;47.312;11.060;2023-05-07T09:06:05;1.08;;;1.00;;
10902;SDS011;5504;47.312;11.060;2023-05-07T09:08:32;2.25;;;1.17;;
10902;SDS011;5504;47.312;11.060;2023-05-07T09:10:58;0.90;;;0.90;;
10902;SDS011;5504;47.312;11.060;2023-05-07T09:13:24;2.85;;;1.10;;
10902;SDS011;5504;47.312;11.060;2023-05-07T09:15:50;1.17;;;1.00;;
10902;SDS011;5504;47.312;11.060;2023-05-07T09:18:15;0.93;;;0.90;;
10902;SDS011;5504;47.312;11.060;2023-05-07T09:20:41;2.05;;;1.00;;
10902;SDS011;5504;47.312;11.060;2023-05-07T09:23:07;1.58;;;1.13;;
10902;SDS011;5504;47.312;11.060;2023-05-07T09:25:34;1.20;;;1.00;;
10902;SDS011;5504;47.312;11.060;2023-05-07T09:28:01;1.25;;;1.10;;
10902;SDS011;5504;47.312;11.060;2023-05-07T09:30:31;1.02;;;1.00;;
10902;SDS011;5504;47.312;11.060;2023-05-07T09:32:58;1.30;;;1.20;;
10902;SDS011;5504;47.312;11.060;2023-05-07T09:35:25;1.20;;;1.10;;
10902;SDS011;5504;47.312;11.060;2023-05-07T09:37:54;0.88;;;0.88;;
10902;SDS011;5504;47.312;11.060;2023-05-07T09:40:24;1.10;;;1.00;;
10902;SDS011;5504;47.312;11.060;2023-05-07T09:42:51;0.80;;;0.80;;
10902;SDS011;5504;47.312;11.060;2023-05-07T09:45:26;1.10;;;0.98;;
10902;SDS011;5504;47.312;11.060;2023-05-07T09:47:56;1.70;;;1.17;;
10902;SDS011;5504;47.312;11.060;2023-05-07T09:50:26;1.98;;;1.00;;
10902;SDS011;5504;47.312;11.060;2023-05-07T09:52:54;1.13;;;1.10;;
10902;SDS011;5504;47.312;11.060;2023-05-07T09:55:21;1.83;;;0.88;;
10902;SDS011;5504;47.312;11.060;2023-05-07T09:57:51;1.10;;;0.90;;
10902;SDS011;5504;47.312;11.060;2023-05-07T10:00:21;1.15;;;1.10;;
10902;SDS011;5504;47.312;11.060;2023-05-07T10:02:48;0.90;;;0.90;;
10902;SDS011;5504;47.312;11.060;2023-05-07T10:05:17;1.80;;;1.08;;
10902;SDS011;5504;47.312;11.060;2023-05-07T10:07:44;1.13;;;0.98;;
10902;SDS011;5504;47.312;11.060;2023-05-07T10:10:11;1.35;;;0.80;;
10902;SDS011;5504;47.312;11.060;2023-05-07T10:12:37;1.13;;;1.10;;
10902;SDS011;5504;47.312;11.060;2023-05-07T10:15:08;1.25;;;1.10;;
10902;SDS011;5504;47.312;11.060;2023-05-07T10:17:38;1.20;;;1.10;;
10902;SDS011;5504;47.312;11.060;2023-05-07T10:20:05;1.20;;;1.10;;
10902;SDS011;5504;47.312;11.060;2023-05-07T10:22:32;1.10;;;1.00;;
10902;SDS011;5504;47.312;11.060;2023-05-07T10:25:23;1.02;;;1.00;;
10902;SDS011;5504;47.312;11.060;2023-05-07T10:27:53;0.95;;;0.93;;
10902;SDS011;5504;47.312;11.060;2023-05-07T10:30:26;1.65;;;1.10;;
10902;SDS011;5504;47.312;11.060;2023-05-07T10:32:59;1.30;;;1.20;;
10902;SDS011;5504;47.312;11.060;2023-05-07T10:35:31;1.10;;;1.00;;
10902;SDS011;5504;47.312;11.060;2023-05-07T10:38:04;1.10;;;1.00;;
10902;SDS011;5504;47.312;11.060;2023-05-07T10:40:30;1.15;;;0.80;;
10902;SDS011;5504;47.312;11.060;2023-05-07T10:42:57;1.20;;;1.10;;
10902;SDS011;5504;47.312;11.060;2023-05-07T10:45:25;1.50;;;0.90;;
10902;SDS011;5504;47.312;11.060;2023-05-07T10:50:40;1.13;;;1.08;;
10902;SDS011;5504;47.312;11.060;2023-05-07T10:55:51;1.20;;;1.10;;
10902;SDS011;5504;47.312;11.060;2023-05-07T10:58:42;0.90;;;0.90;;
10902;SDS011;5504;47.312;11.060;2023-05-07T11:01:08;0.98;;;0.95;;
10902;SDS011;5504;47.312;11.060;2023-05-07T11:03:36;1.02;;;1.00;;
10902;SDS011;5504;47.312;11.060;2023-05-07T11:06:40;1.10;;;1.00;;
10902;SDS011;5504;47.312;11.060;2023-05-07T11:09:06;1.02;;;0.90;;
10902;SDS011;5504;47.312;11.060;2023-05-07T11:11:50;1.00;;;0.90;;
10902;SDS011;5504;47.312;11.060;2023-05-07T11:17:05;0.90;;;0.90;;
10902;SDS011;5504;47.312;11.060;2023-05-07T11:19:48;1.02;;;0.90;;
10902;SDS011;5504;47.312;11.060;2023-05-07T11:25:10;1.35;;;0.80;;
10902;SDS011;5504;47.312;11.060;2023-05-07T11:27:42;0.80;;;0.80;;
10902;SDS011;5504;47.312;11.060;2023-05-07T11:30:08;1.90;;;0.90;;
10902;SDS011;5504;47.312;11.060;2023-05-07T11:32:34;0.80;;;0.80;;
10902;SDS011;5504;47.312;11.060;2023-05-07T11:35:00;0.98;;;0.90;;
10902;SDS011;5504;47.312;11.060;2023-05-07T11:37:26;2.20;;;1.00;;
10902;SDS011;5504;47.312;11.060;2023-05-07T11:40:07;0.95;;;0.93;;
10902;SDS011;5504;47.312;11.060;2023-05-07T11:42:36;1.23;;;0.70;;
10902;SDS011;5504;47.312;11.060;2023-05-07T11:45:03;1.58;;;0.93;;
10902;SDS011;5504;47.312;11.060;2023-05-07T11:47:30;2.30;;;0.90;;
10902;SDS011;5504;47.312;11.060;2023-05-07T11:49:57;1.27;;;1.08;;
10902;SDS011;5504;47.312;11.060;2023-05-07T11:52:31;1.13;;;0.95;;
10902;SDS011;5504;47.312;11.060;2023-05-07T11:54:58;1.45;;;1.00;;
10902;SDS011;5504;47.312;11.060;2023-05-07T11:57:28;2.42;;;1.23;;
10902;SDS011;5504;47.312;11.060;2023-05-07T11:59:57;1.30;;;1.08;;
10902;SDS011;5504;47.312;11.060;2023-05-07T12:02:24;1.20;;;1.10;;
10902;SDS011;5504;47.312;11.060;2023-05-07T12:04:51;1.15;;;0.90;;
10902;SDS011;5504;47.312;11.060;2023-05-07T12:07:17;1.45;;;1.10;;
10902;SDS011;5504;47.312;11.060;2023-05-07T12:09:43;1.88;;;0.95;;
10902;SDS011;5504;47.312;11.060;2023-05-07T12:12:10;0.90;;;0.90;;
10902;SDS011;5504;47.312;11.060;2023-05-07T12:14:39;1.27;;;1.17;;
10902;SDS011;5504;47.312;11.060;2023-05-07T12:17:09;1.20;;;1.10;;
10902;SDS011;5504;47.312;11.060;2023-05-07T12:19:37;2.85;;;1.10;;
10902;SDS011;5504;47.312;11.060;2023-05-07T12:22:03;2.13;;;1.00;;
10902;SDS011;5504;47.312;11.060;2023-05-07T12:24:46;1.10;;;1.00;;
10902;SDS011;5504;47.312;11.060;2023-05-07T12:27:13;1.35;;;1.05;;
10902;SDS011;5504;47.312;11.060;2023-05-07T12:29:43;1.10;;;1.00;;
10902;SDS011;5504;47.312;11.060;2023-05-07T12:32:13;1.75;;;1.02;;
10902;SDS011;5504;47.312;11.060;2023-05-07T12:34:40;1.00;;;0.90;;
10902;SDS011;5504;47.312;11.060;2023-05-07T12:37:06;0.82;;;0.80;;
10902;SDS011;5504;47.312;11.060;2023-05-07T12:39:31;1.13;;;0.90;;
10902;SDS011;5504;47.312;11.060;2023-05-07T12:41:58;1.17;;;1.02;;
10902;SDS011;5504;47.312;11.060;2023-05-07T12:44:25;0.93;;;0.93;;
10902;SDS011;5504;47.312;11.060;2023-05-07T12:46:55;0.95;;;0.90;;
10902;SDS011;5504;47.312;11.060;2023-05-07T12:49:20;0.95;;;0.90;;
10902;SDS011;5504;47.312;11.060;2023-05-07T12:51:47;1.08;;;1.00;;
10902;SDS011;5504;47.312;11.060;2023-05-07T12:54:33;1.15;;;0.88;;
10902;SDS011;5504;47.312;11.060;2023-05-07T12:57:02;1.00;;;0.90;;
10902;SDS011;5504;47.312;11.060;2023-05-07T12:59:39;1.52;;;0.85;;
10902;SDS011;5504;47.312;11.060;2023-05-07T13:02:06;1.00;;;0.90;;
10902;SDS011;5504;47.312;11.060;2023-05-07T13:04:32;1.00;;;0.90;;
10902;SDS011;5504;47.312;11.060;2023-05-07T13:06:59;2.35;;;1.00;;
10902;SDS011;5504;47.312;11.060;2023-05-07T13:09:25;1.00;;;0.90;;
10902;SDS011;5504;47.312;11.060;2023-05-07T13:11:50;1.08;;;0.90;;
10902;SDS011;5504;47.312;11.060;2023-05-07T13:14:16;0.98;;;0.90;;
10902;SDS011;5504;47.312;11.060;2023-05-07T13:16:42;1.17;;;0.80;;
10902;SDS011;5504;47.312;11.060;2023-05-07T13:19:08;1.25;;;0.90;;
10902;SDS011;5504;47.312;11.060;2023-05-07T13:21:34;1.10;;;1.00;;
10902;SDS011;5504;47.312;11.060;2023-05-07T13:24:00;0.93;;;0.80;;
10902;SDS011;5504;47.312;11.060;2023-05-07T13:26:25;0.82;;;0.82;;
10902;SDS011;5504;47.312;11.060;2023-05-07T13:28:52;1.00;;;0.90;;
10902;SDS011;5504;47.312;11.060;2023-05-07T13:31:18;1.20;;;1.10;;
10902;SDS011;5504;47.312;11.060;2023-05-07T13:33:45;0.95;;;0.90;;
10902;SDS011;5504;47.312;11.060;2023-05-07T13:36:11;0.95;;;0.93;;
10902;SDS011;5504;47.312;11.060;2023-05-07T13:38:37;1.25;;;1.00;;
10902;SDS011;5504;47.312;11.060;2023-05-07T13:41:02;1.25;;;1.10;;
10902;SDS011;5504;47.312;11.060;2023-05-07T13:43:28;1.65;;;1.10;;
10902;SDS011;5504;47.312;11.060;2023-05-07T13:45:54;1.38;;;1.10;;
10902;SDS011;5504;47.312;11.060;2023-05-07T13:48:20;2.58;;;1.23;;
10902;SDS011;5504;47.312;11.060;2023-05-07T13:50:53;3.33;;;1.15;;
10902;SDS011;5504;47.312;11.060;2023-05-07T13:53:18;1.05;;;1.00;;
10902;SDS011;5504;47.312;11.060;2023-05-07T13:55:44;1.75;;;1.10;;
10902;SDS011;5504;47.312;11.060;2023-05-07T13:58:10;1.20;;;1.10;;
10902;SDS011;5504;47.312;11.060;2023-05-07T14:00:36;1.25;;;1.00;;
10902;SDS011;5504;47.312;11.060;2023-05-07T14:03:02;1.67;;;1.17;;
10902;SDS011;5504;47.312;11.060;2023-05-07T14:05:29;1.70;;;1.10;;
10902;SDS011;5504;47.312;11.060;2023-05-07T14:07:56;1.30;;;1.20;;
10902;SDS011;5504;47.312;11.060;2023-05-07T14:10:23;1.20;;;1.10;;
10902;SDS011;5504;47.312;11.060;2023-05-07T14:12:49;1.10;;;1.00;;
10902;SDS011;5504;47.312;11.060;2023-05-07T14:15:15;2.10;;;1.20;;
10902;SDS011;5504;47.312;11.060;2023-05-07T14:17:41;1.40;;;1.13;;
10902;SDS011;5504;47.312;11.060;2023-05-07T14:20:08;1.38;;;1.27;;
10902;SDS011;5504;47.312;11.060;2023-05-07T14:22:35;2.00;;;1.13;;
10902;SDS011;5504;47.312;11.060;2023-05-07T14:25:01;1.40;;;1.10;;
10902;SDS011;5504;47.312;11.060;2023-05-07T14:27:27;1.88;;;1.20;;
10902;SDS011;5504;47.312;11.060;2023-05-07T14:29:52;1.17;;;0.98;;
10902;SDS011;5504;47.312;11.060;2023-05-07T14:32:18;1.85;;;1.50;;
10902;SDS011;5504;47.312;11.060;2023-05-07T14:34:45;2.88;;;1.20;;
10902;SDS011;5504;47.312;11.060;2023-05-07T14:37:11;5.28;;;1.33;;
10902;SDS011;5504;47.312;11.060;2023-05-07T14:39:37;2.20;;;1.20;;
10902;SDS011;5504;47.312;11.060;2023-05-07T14:42:03;2.28;;;1.20;;
10902;SDS011;5504;47.312;11.060;2023-05-07T14:44:28;1.75;;;1.17;;
10902;SDS011;5504;47.312;11.060;2023-05-07T14:46:54;1.30;;;1.20;;
10902;SDS011;5504;47.312;11.060;2023-05-07T14:49:20;1.80;;;1.30;;
10902;SDS011;5504;47.312;11.060;2023-05-07T14:51:46;2.75;;;1.50;;
10902;SDS011;5504;47.312;11.060;2023-05-07T14:54:12;1.42;;;1.17;;
10902;SDS011;5504;47.312;11.060;2023-05-07T14:56:39;1.73;;;1.30;;
10902;SDS011;5504;47.312;11.060;2023-05-07T14:59:05;1.83;;;1.23;;